Cuyahoga County Airport Cleveland US
ICAO: KCGF
IATA: CGF
Category: Medium
Scheduled Services: No

Elevation: 879 ft
TransAlt. 18000 ft.

Airport Communications:
CLEVELAND APP/DEP:125.35
CTAF:118.5
GND/CLNC DEL:121.85
COUNTY TWR:118.5
UNICOM:122.95

KCGF Zoom In..

If you have problems with the map follow the link
https://www.worldairports.se/pages/airport.php?
ICAO=KCGF

Runways:

(A) RW 06 length 5102 ft width 100 ft
---- / hdg 57

(B) RW 24 length 5102 ft width 100 ft
ILS 111.10 / hdg 237

Location; KCGF
Day. 23 / Time. 17.45 Zulu
* Altimeter: 30.12
* Temperature: 10° c. 50°f.
* Wind from: 330° Speed 11 kn with Gusts up to 19 kn.
Dewpoint: 05° c.
Visibility: 20 Statute Miles.
Clouds: Scattered 2300 ft.
Clouds: Broken 3000 ft.

KCGF 231745Z 33011G19KT 20SM SCT023 BKN030 10/05 A3012


Wind From 330°
Speed 11 kn.

 
 
jpsmedia.com for Web Design worldairports.se 2018   terms of use